Irving, TX

8:00 PM CDT on July 29, 2016 (GMT -0500)
Dallas-Fort Worth International | | Change Station

Elev 597 ft 32.90 °N, 97.02 °W | Updated 7 minutes ago

Partly Cloudy
Partly Cloudy
92 °F
Feels Like 94 °F
N
7
Wind Variable Wind from SSW

Today
High -- | Low -- °F
--% Chance of Precip.
Yesterday
High -- | Low -- °F
Precip. -- in
Pressure 29.86 in
Visibility 10.0 miles
Clouds Few 5000 ft
Few 30000 ft
Heat Index 94 °F
Dew Point 65 °F
Humidity 41%
Rainfall 0.00 in
Snow Depth Not available.
6:40 AM 8:28 PM
Waning Crescent, 17% visible
METAR KDFW 300053Z 20006KT 10SM FEW050 FEW300 33/18 A2989 RMK AO2 SLP111 TCU DSNT N-NE T03330183
Pressure 29.86 in
Visibility 10.0 miles
Clouds Few 5000 ft
Few 30000 ft
Heat Index 94 °F
Dew Point 65 °F
Humidity 41%
Rainfall 0.00 in
Snow Depth Not available.
6:40 AM 8:28 PM
Waning Crescent, 17% visible
METAR KDFW 300053Z 20006KT 10SM FEW050 FEW300 33/18 A2989 RMK AO2 SLP111 TCU DSNT N-NE T03330183

10-Day Weather Forecast

Almanac

Astronomy

Jul. 29, 2016 Rise Set
Actual Time
Civil Twilight
Nautical Twilight
Astronomical Twilight
Moon
Length of Visible Light
Length of Day
Tomorrow will be .
, % of the Moon is Illuminated

Today's Extremes

State Highs State Lows

Community

WunderPhotos

Upload Photos

1,928,457 photos uploaded!

WunderBlog® & News

Nearby

Air Quality

  Air Quality AQ Index Pollutant
Not available.

Snow Depth

Station Depth Elevation

Earthquake Activity

City Distance Mag. Time & Date
Minimum magnitude displayed is 2.5.

Coastal Water Temperatures

Place Temperature

Stations

Nearby Weather Stations

Station Location Temp. Windchill Dew Point Humidity Wind Precip. Elev Updated Type
                   

Watches & Warnings

There are currently no watches in effect.